Terminal Aerodrome Forecast
Issued by NWS Medford, OR

Home | Current Version | Previous Version | Text Only | Print | Product List | Glossary On
Versions: 1 2 3 4 5 6 7 8 9 10 11 12 13 14 15 16 17 18 19 20 21 22
000
FTUS46 KMFR 310500
TAFMFR
TAF
KMFR 310538Z 3106/0106 VRB03KT 3SM RA BR SCT006 OVC012
     FM311400 00000KT 5SM RA BR OVC020
     FM311700 29005KT P6SM -SHRA BKN035 OVC060
     FM312300 32003KT P6SM SCT035 OVC060=

USA.gov is the U.S. government's official web portal to all federal, state and local government web resources and services.